Time;durP1;ratioP1;P1;durP2;ratioP2;P2;SDS_P1;SDS_P2;PMS_P1;PMS_P2;Temp;Humidity;BMP_temperature;BMP_pressure;BME280_temperature;BME280_humidity;BME280_pressure;Samples;Min_cycle;Max_cycle;Signal;HPM_P1;HPM_P2
2021/10/12 00:01:00;;;;;;;11.77;5.00;;;9.50;99.90;;;;;;5073161;28;20408;-51
2021/10/12 00:03:26;;;;;;;10.33;5.23;;;9.80;99.90;;;;;;5073490;28;20452;-52
2021/10/12 00:05:53;;;;;;;8.83;5.60;;;9.80;99.90;;;;;;5073653;28;20815;-52
2021/10/12 00:08:19;;;;;;;13.67;6.67;;;10.20;99.90;;;;;;5073412;28;20508;-51
2021/10/12 00:10:46;;;;;;;10.30;4.90;;;9.80;99.90;;;;;;5073427;28;20901;-51
2021/10/12 00:13:13;;;;;;;14.07;5.77;;;9.70;99.90;;;;;;5073343;28;20953;-52
2021/10/12 00:15:39;;;;;;;17.60;6.33;;;10.30;99.90;;;;;;5073308;28;20440;-51
2021/10/12 00:18:07;;;;;;;16.97;6.17;;;9.40;99.90;;;;;;5073093;28;20447;-51
2021/10/12 00:20:34;;;;;;;14.10;6.50;;;9.70;99.90;;;;;;5073173;28;20412;-52
2021/10/12 00:23:00;;;;;;;15.30;6.00;;;9.60;99.90;;;;;;5073188;28;20454;-52
2021/10/12 00:25:27;;;;;;;14.23;6.20;;;9.30;99.90;;;;;;5073014;28;20437;-52
2021/10/12 00:27:55;;;;;;;11.00;6.30;;;9.70;99.90;;;;;;5072986;28;20503;-52
2021/10/12 00:30:21;;;;;;;10.50;5.63;;;10.60;99.90;;;;;;5073039;28;20440;-49
2021/10/12 00:32:48;;;;;;;14.03;8.07;;;9.70;99.90;;;;;;5072791;28;20439;-51
2021/10/12 00:35:16;;;;;;;11.07;6.53;;;9.70;99.90;;;;;;5073014;28;20441;-51
2021/10/12 00:37:42;;;;;;;13.50;6.23;;;9.80;99.90;;;;;;5072454;28;20469;-52
2021/10/12 00:40:10;;;;;;;23.40;7.13;;;9.90;99.90;;;;;;5072973;28;20434;-52
2021/10/12 00:42:37;;;;;;;7.67;5.10;;;9.50;99.90;;;;;;5072845;28;20460;-51
2021/10/12 00:45:05;;;;;;;11.57;5.70;;;9.70;99.90;;;;;;5072765;28;20748;-51
2021/10/12 00:47:32;;;;;;;7.67;4.33;;;9.80;99.90;;;;;;5072602;28;20570;-51
2021/10/12 00:50:01;;;;;;;8.97;4.40;;;9.20;99.90;;;;;;5072363;28;20428;-52
2021/10/12 00:52:29;;;;;;;12.53;3.97;;;9.90;99.90;;;;;;5072515;28;20454;-51
2021/10/12 00:54:56;;;;;;;10.13;4.90;;;9.60;99.90;;;;;;5072458;28;20950;-51
2021/10/12 00:57:22;;;;;;;14.90;3.33;;;9.60;99.90;;;;;;5072272;28;20484;-51
2021/10/12 00:59:49;;;;;;;10.53;3.40;;;9.00;99.90;;;;;;5071965;28;20429;-52
2021/10/12 01:02:16;;;;;;;7.37;2.90;;;9.00;99.90;;;;;;5072318;28;20835;-52
2021/10/12 01:04:43;;;;;;;8.53;2.97;;;9.50;99.90;;;;;;5072738;28;20453;-52
2021/10/12 01:07:09;;;;;;;10.67;3.60;;;9.90;99.90;;;;;;5072584;28;20415;-51
2021/10/12 01:09:40;;;;;;;9.20;4.10;;;9.50;99.90;;;;;;5054044;28;20450;-51
2021/10/12 01:12:06;;;;;;;17.83;4.17;;;9.50;99.90;;;;;;5072181;28;20433;-51
2021/10/12 01:14:33;;;;;;;10.53;4.50;;;8.90;99.90;;;;;;5072206;28;20412;-52
2021/10/12 01:16:59;;;;;;;9.80;4.37;;;9.50;99.90;;;;;;5072008;28;20478;-51
2021/10/12 01:19:26;;;;;;;21.70;4.33;;;9.40;99.90;;;;;;5071601;28;20441;-51
2021/10/12 01:21:54;;;;;;;9.57;4.70;;;9.20;99.90;;;;;;5071952;28;20416;-51
2021/10/12 01:24:21;;;;;;;13.30;5.50;;;9.60;99.90;;;;;;5072136;28;20408;-51
2021/10/12 01:26:47;;;;;;;12.40;6.00;;;9.60;99.90;;;;;;5071996;28;20948;-52
2021/10/12 01:29:15;;;;;;;13.27;7.60;;;9.70;99.90;;;;;;5071712;28;20396;-52
2021/10/12 01:31:42;;;;;;;10.10;5.90;;;9.90;99.90;;;;;;5070784;28;20441;-52
2021/10/12 01:34:13;;;;;;;10.93;6.90;;;10.10;99.90;;;;;;5071759;28;20993;-52
2021/10/12 01:36:40;;;;;;;11.70;6.43;;;9.70;99.90;;;;;;5071975;28;20978;-52
2021/10/12 01:39:09;;;;;;;10.57;5.70;;;9.60;99.90;;;;;;5071411;28;20400;-51
2021/10/12 01:41:36;;;;;;;10.67;5.20;;;9.70;99.90;;;;;;5071860;28;20858;-51
2021/10/12 01:44:03;;;;;;;9.80;5.30;;;9.60;99.90;;;;;;5053590;28;20473;-52
2021/10/12 01:46:30;;;;;;;11.70;6.00;;;9.60;99.90;;;;;;5071804;28;20429;-52
2021/10/12 01:48:56;;;;;;;13.13;6.83;;;9.60;99.90;;;;;;5053600;28;20457;-52
2021/10/12 01:51:23;;;;;;;9.97;5.57;;;9.40;99.90;;;;;;5071722;28;20411;-52
2021/10/12 01:53:49;;;;;;;13.93;6.27;;;9.60;99.90;;;;;;5071523;28;20453;-51
2021/10/12 01:56:17;;;;;;;9.03;5.47;;;9.70;99.90;;;;;;5071740;28;20441;-52
2021/10/12 01:58:50;;;;;;;9.90;4.20;;;9.30;99.90;;;;;;5071057;28;20447;-52
2021/10/12 02:01:19;;;;;;;7.30;4.00;;;9.20;99.90;;;;;;5071406;28;20520;-51
2021/10/12 02:03:46;;;;;;;8.10;3.27;;;9.20;99.90;;;;;;5071500;28;20453;-51
2021/10/12 02:06:13;;;;;;;7.70;2.70;;;9.60;99.90;;;;;;5071579;28;20437;-52
2021/10/12 02:08:39;;;;;;;9.37;2.73;;;9.40;99.90;;;;;;5070377;28;20425;-52
2021/10/12 02:11:06;;;;;;;8.23;2.70;;;9.40;99.90;;;;;;5071454;28;20971;-52
2021/10/12 02:13:34;;;;;;;8.80;3.17;;;9.50;99.90;;;;;;5071366;28;20450;-52
2021/10/12 02:16:00;;;;;;;6.30;2.53;;;9.40;99.90;;;;;;5071537;28;20443;-51
2021/10/12 02:18:27;;;;;;;11.03;2.90;;;8.80;99.90;;;;;;5071000;28;20463;-52
2021/10/12 02:20:53;;;;;;;9.63;2.60;;;9.40;99.90;;;;;;5071368;28;20948;-52
2021/10/12 02:23:20;;;;;;;8.07;2.53;;;8.70;99.90;;;;;;5053263;28;20469;-50
2021/10/12 02:25:47;;;;;;;8.63;2.97;;;9.30;99.90;;;;;;5071485;28;20425;-51
2021/10/12 02:28:13;;;;;;;11.03;2.87;;;9.80;99.90;;;;;;5070869;28;20444;-51
2021/10/12 02:30:41;;;;;;;13.83;2.70;;;9.30;99.90;;;;;;5071252;28;20408;-51
2021/10/12 02:33:08;;;;;;;10.57;2.80;;;8.80;99.90;;;;;;5071240;28;20435;-52
2021/10/12 02:35:34;;;;;;;13.80;2.90;;;9.30;99.90;;;;;;5071081;28;20462;-51
2021/10/12 02:38:01;;;;;;;12.30;3.07;;;9.30;99.90;;;;;;5070818;28;20479;-51
2021/10/12 02:40:28;;;;;;;11.40;3.83;;;9.20;99.90;;;;;;5071121;28;20939;-52
2021/10/12 02:42:54;;;;;;;9.23;2.90;;;8.70;99.90;;;;;;5093671;22;20492;-50
2021/10/12 02:45:21;;;;;;;6.30;2.70;;;8.60;99.90;;;;;;5070109;28;20453;-50
2021/10/12 02:47:49;;;;;;;7.53;3.10;;;9.20;99.90;;;;;;5071075;28;20421;-51
2021/10/12 02:50:15;;;;;;;7.90;3.27;;;9.00;99.90;;;;;;5071483;28;20445;-50
2021/10/12 02:52:42;;;;;;;8.17;2.37;;;9.10;99.90;;;;;;5071170;28;20460;-50
2021/10/12 02:55:09;;;;;;;12.20;2.93;;;9.20;99.90;;;;;;5071323;28;20438;-51
2021/10/12 02:57:36;;;;;;;6.80;3.00;;;9.30;99.90;;;;;;5070940;28;20444;-51
2021/10/12 03:00:05;;;;;;;7.90;2.77;;;8.70;99.90;;;;;;5070896;28;20781;-49
2021/10/12 03:02:32;;;;;;;8.37;3.03;;;9.00;99.90;;;;;;5071002;28;20434;-50
2021/10/12 03:05:00;;;;;;;8.03;2.80;;;9.00;99.90;;;;;;5071184;28;20400;-50
2021/10/12 03:07:27;;;;;;;10.10;3.10;;;8.80;99.90;;;;;;5071139;28;20869;-50
2021/10/12 03:09:53;;;;;;;8.40;3.40;;;9.10;99.90;;;;;;5070782;28;20406;-50
2021/10/12 03:12:20;;;;;;;6.03;2.60;;;9.00;99.90;;;;;;5071094;28;20434;-49
2021/10/12 03:14:46;;;;;;;8.03;2.67;;;9.30;99.90;;;;;;5070892;28;20427;-49
2021/10/12 03:17:13;;;;;;;8.43;3.43;;;9.20;99.90;;;;;;5070856;28;20477;-50
2021/10/12 03:19:39;;;;;;;7.07;2.57;;;8.80;99.90;;;;;;5072981;28;20969;-50
2021/10/12 03:22:10;;;;;;;6.83;2.77;;;8.70;99.90;;;;;;5074558;28;20477;-49
2021/10/12 03:24:37;;;;;;;9.30;3.60;;;9.20;99.90;;;;;;5074830;28;20456;-49
2021/10/12 03:27:05;;;;;;;7.13;2.97;;;9.10;99.90;;;;;;5074695;28;20494;-50
2021/10/12 03:29:31;;;;;;;8.07;2.47;;;9.10;99.90;;;;;;5074142;28;20408;-49
2021/10/12 03:31:59;;;;;;;10.10;3.07;;;9.20;99.90;;;;;;5074351;28;20452;-49
2021/10/12 03:34:26;;;;;;;5.27;2.57;;;9.10;99.90;;;;;;5073045;28;20527;-50
2021/10/12 03:36:53;;;;;;;8.83;2.87;;;9.20;99.90;;;;;;5074226;28;20411;-50
2021/10/12 03:39:21;;;;;;;6.67;2.60;;;9.00;99.90;;;;;;5073941;28;20651;-49
2021/10/12 03:41:50;;;;;;;6.07;2.20;;;8.60;99.90;;;;;;5074168;28;20441;-50
2021/10/12 03:44:16;;;;;;;7.80;2.43;;;9.30;99.90;;;;;;5074147;28;20453;-50
2021/10/12 03:46:43;;;;;;;5.30;2.43;;;9.10;99.90;;;;;;5073915;28;20443;-49
2021/10/12 03:49:10;;;;;;;9.03;2.70;;;8.90;99.90;;;;;;5073534;28;20397;-50
2021/10/12 03:51:36;;;;;;;4.83;2.83;;;9.20;99.90;;;;;;5074109;28;20440;-52
2021/10/12 03:54:03;;;;;;;7.20;2.40;;;9.20;99.90;;;;;;5074234;28;20952;-50
2021/10/12 03:56:31;;;;;;;8.30;3.00;;;8.90;99.90;;;;;;5073900;28;20436;-51
2021/10/12 03:58:57;;;;;;;10.07;3.00;;;8.90;99.90;;;;;;5073456;28;20452;-51
2021/10/12 04:01:24;;;;;;;9.80;3.37;;;9.20;99.90;;;;;;5074023;28;20770;-50
2021/10/12 04:03:52;;;;;;;8.90;3.27;;;9.10;99.90;;;;;;5073830;28;20453;-51
2021/10/12 04:06:19;;;;;;;13.97;3.47;;;9.20;99.90;;;;;;5073494;28;20837;-50
2021/10/12 04:08:46;;;;;;;7.10;3.60;;;9.20;99.90;;;;;;5073281;28;20762;-51
2021/10/12 04:11:12;;;;;;;5.57;3.03;;;9.20;99.90;;;;;;5073822;28;20426;-50
2021/10/12 04:13:40;;;;;;;12.07;4.00;;;9.20;99.90;;;;;;5073339;28;20460;-51
2021/10/12 04:16:07;;;;;;;4.47;2.87;;;9.40;99.90;;;;;;5073417;28;20453;-52
2021/10/12 04:18:33;;;;;;;13.23;3.80;;;9.40;99.90;;;;;;5072879;28;20804;-50
2021/10/12 04:21:00;;;;;;;12.47;3.97;;;9.50;99.90;;;;;;5073392;28;20445;-50
2021/10/12 04:23:26;;;;;;;10.73;3.90;;;9.50;99.90;;;;;;5073420;28;20448;-50
2021/10/12 04:25:53;;;;;;;6.40;3.60;;;9.50;99.90;;;;;;5073189;28;20815;-50
2021/10/12 04:28:20;;;;;;;10.73;4.43;;;9.00;99.90;;;;;;5072858;28;20437;-49
2021/10/12 04:30:48;;;;;;;10.57;4.37;;;9.30;99.90;;;;;;5072347;28;20411;-50
2021/10/12 04:33:15;;;;;;;9.90;3.40;;;9.80;99.90;;;;;;5072938;28;20477;-50
2021/10/12 04:35:42;;;;;;;9.30;3.93;;;9.50;99.90;;;;;;5073213;28;20438;-50
2021/10/12 04:38:09;;;;;;;11.37;5.43;;;9.40;99.90;;;;;;5072722;28;20844;-50
2021/10/12 04:40:36;;;;;;;12.10;5.43;;;9.70;99.90;;;;;;5072939;28;20948;-50
2021/10/12 04:43:06;;;;;;;10.70;5.10;;;9.80;99.90;;;;;;5072945;28;20979;-50
2021/10/12 04:45:33;;;;;;;14.17;7.47;;;9.90;99.90;;;;;;5072862;28;20837;-50
2021/10/12 04:48:01;;;;;;;12.40;8.87;;;10.00;99.90;;;;;;5072281;28;20455;-51
2021/10/12 04:50:27;;;;;;;11.90;8.27;;;10.00;99.90;;;;;;5072662;28;20504;-49
2021/10/12 04:52:54;;;;;;;10.57;9.00;;;9.90;99.90;;;;;;5072605;28;20425;-50
2021/10/12 04:55:21;;;;;;;12.93;10.93;;;9.40;99.90;;;;;;5072615;28;20411;-50
2021/10/12 04:57:48;;;;;;;14.40;9.67;;;9.80;99.90;;;;;;5072155;28;20469;-51
2021/10/12 05:00:15;;;;;;;8.70;6.97;;;9.60;99.90;;;;;;5072799;28;20437;-51
2021/10/12 05:02:41;;;;;;;13.00;8.00;;;9.90;99.90;;;;;;5072765;28;20458;-49
2021/10/12 05:05:09;;;;;;;9.93;8.20;;;9.90;99.90;;;;;;5072619;28;20491;-50
2021/10/12 05:07:38;;;;;;;15.03;9.70;;;10.40;99.90;;;;;;5073031;28;20466;-51
2021/10/12 05:10:06;;;;;;;15.23;10.50;;;9.70;99.90;;;;;;5073499;28;20487;-49
2021/10/12 05:12:32;;;;;;;12.20;9.10;;;9.90;99.90;;;;;;5072292;28;20434;-50
2021/10/12 05:14:59;;;;;;;14.87;8.47;;;10.00;99.90;;;;;;5072204;28;20425;-50
2021/10/12 05:17:27;;;;;;;11.40;7.20;;;10.10;99.90;;;;;;5072202;28;20549;-50
2021/10/12 05:19:54;;;;;;;20.70;8.50;;;9.70;99.90;;;;;;5071845;28;20492;-50
2021/10/12 05:22:22;;;;;;;9.17;6.80;;;9.60;99.90;;;;;;5072044;28;20496;-49
2021/10/12 05:24:48;;;;;;;7.20;6.10;;;10.10;99.90;;;;;;5071963;28;20433;-51
2021/10/12 05:27:15;;;;;;;6.43;4.63;;;9.90;99.90;;;;;;5071875;28;20433;-50
2021/10/12 05:29:42;;;;;;;9.37;4.67;;;10.00;99.90;;;;;;5072027;28;20910;-50
2021/10/12 05:32:10;;;;;;;5.77;4.20;;;10.00;99.90;;;;;;5072402;28;20856;-51
2021/10/12 05:34:37;;;;;;;6.73;4.90;;;9.90;99.90;;;;;;5072106;28;20449;-50
2021/10/12 05:37:04;;;;;;;11.90;4.90;;;9.80;99.90;;;;;;5071902;28;20446;-51
2021/10/12 05:39:32;;;;;;;5.40;4.30;;;9.90;99.90;;;;;;5071122;28;20481;-49
2021/10/12 05:41:58;;;;;;;5.83;4.27;;;10.00;99.90;;;;;;5071337;28;20433;-50
2021/10/12 05:44:25;;;;;;;7.73;3.70;;;9.80;99.90;;;;;;5071358;28;20477;-50
2021/10/12 05:46:52;;;;;;;5.27;4.77;;;10.20;99.90;;;;;;5071869;28;20774;-50
2021/10/12 05:49:18;;;;;;;5.13;3.37;;;9.80;99.90;;;;;;5071028;28;20400;-50
2021/10/12 05:51:47;;;;;;;6.27;3.33;;;10.00;99.90;;;;;;5071600;28;20419;-51
2021/10/12 05:54:15;;;;;;;3.20;2.90;;;9.90;99.90;;;;;;5070978;28;21020;-50
2021/10/12 05:56:46;;;;;;;4.77;3.40;;;9.80;99.90;;;;;;5071285;28;20499;-51
2021/10/12 05:59:13;;;;;;;7.80;3.47;;;9.80;99.90;;;;;;5069374;28;20522;-50
2021/10/12 06:01:41;;;;;;;8.53;3.17;;;9.80;99.90;;;;;;5071593;28;20854;-52
2021/10/12 06:04:07;;;;;;;7.37;3.40;;;9.80;99.90;;;;;;5071347;28;20530;-50
2021/10/12 06:06:34;;;;;;;14.90;3.57;;;9.90;99.90;;;;;;5071503;28;20433;-50
2021/10/12 06:09:00;;;;;;;8.60;3.70;;;9.90;99.90;;;;;;5070678;28;20404;-50
2021/10/12 06:11:27;;;;;;;10.30;4.30;;;10.00;99.90;;;;;;5071184;28;20434;-50
2021/10/12 06:13:56;;;;;;;7.70;4.47;;;9.90;99.90;;;;;;5071349;28;20468;-51
2021/10/12 06:16:23;;;;;;;7.20;3.70;;;9.80;99.90;;;;;;5071414;28;20438;-50
2021/10/12 06:18:50;;;;;;;8.20;4.70;;;10.00;99.90;;;;;;5070753;28;20887;-50
2021/10/12 06:21:17;;;;;;;8.57;5.40;;;10.20;99.90;;;;;;5071465;28;20459;-50
2021/10/12 06:23:43;;;;;;;7.53;5.70;;;10.20;99.90;;;;;;5072045;28;20764;-51
2021/10/12 06:26:10;;;;;;;16.70;9.60;;;10.20;99.90;;;;;;5071276;28;20787;-51
2021/10/12 06:28:37;;;;;;;10.30;7.70;;;10.20;99.90;;;;;;5070657;28;20939;-51
2021/10/12 06:31:06;;;;;;;8.03;6.03;;;10.40;99.90;;;;;;5071135;28;20432;-50
2021/10/12 06:33:34;;;;;;;9.27;7.47;;;10.00;99.90;;;;;;5070695;28;20454;-50
2021/10/12 06:36:00;;;;;;;11.73;7.53;;;10.40;99.90;;;;;;5070923;28;20426;-51
2021/10/12 06:38:27;;;;;;;10.97;6.00;;;10.30;99.90;;;;;;5070269;28;20492;-51
2021/10/12 06:40:54;;;;;;;8.20;5.30;;;10.00;99.90;;;;;;5070959;28;20478;-50
2021/10/12 06:43:20;;;;;;;9.50;5.80;;;10.10;99.90;;;;;;5070875;28;20447;-51
2021/10/12 06:45:47;;;;;;;9.63;5.63;;;10.40;99.90;;;;;;5070596;28;20426;-50
2021/10/12 06:48:15;;;;;;;16.20;7.07;;;10.80;99.90;;;;;;5070426;28;20495;-50
2021/10/12 06:50:41;;;;;;;5.93;4.70;;;10.30;99.90;;;;;;5071101;28;20442;-51
2021/10/12 06:53:08;;;;;;;8.53;5.73;;;10.10;99.90;;;;;;5070567;28;20427;-51
2021/10/12 06:55:35;;;;;;;6.30;4.53;;;10.40;99.90;;;;;;5074921;28;20540;-52
2021/10/12 06:58:01;;;;;;;8.50;5.00;;;11.00;99.90;;;;;;5074214;28;20784;-51
2021/10/12 07:00:28;;;;;;;11.03;5.53;;;10.90;99.90;;;;;;5074493;28;20901;-49
2021/10/12 07:02:54;;;;;;;11.00;5.40;;;10.70;99.90;;;;;;5074274;28;20957;-51
2021/10/12 07:05:22;;;;;;;11.77;5.63;;;10.80;99.90;;;;;;5074597;28;20499;-50
2021/10/12 07:07:49;;;;;;;8.73;5.73;;;10.90;99.90;;;;;;5073757;28;20902;-50
2021/10/12 07:10:16;;;;;;;10.73;6.70;;;10.90;99.90;;;;;;5074899;28;20533;-50
2021/10/12 07:12:43;;;;;;;9.77;7.33;;;10.90;99.90;;;;;;5074505;28;20740;-50
2021/10/12 07:15:10;;;;;;;9.93;8.03;;;11.00;99.90;;;;;;5074481;28;20412;-50
2021/10/12 07:17:38;;;;;;;10.70;8.17;;;10.90;99.90;;;;;;5073629;28;20441;-51
2021/10/12 07:20:07;;;;;;;9.13;8.23;;;11.50;99.90;;;;;;5073598;28;20454;-50
2021/10/12 07:22:35;;;;;;;8.43;6.27;;;11.20;99.90;;;;;;5073938;28;20448;-51
2021/10/12 07:25:04;;;;;;;5.20;4.70;;;11.40;99.90;;;;;;5074312;28;20416;-50
2021/10/12 07:27:31;;;;;;;4.63;4.10;;;10.90;99.90;;;;;;5074054;28;20444;-50
2021/10/12 07:29:57;;;;;;;6.30;3.30;;;11.20;99.90;;;;;;5073018;28;20437;-51
2021/10/12 07:32:24;;;;;;;5.00;3.10;;;11.20;99.90;;;;;;5072770;28;20413;-50
2021/10/12 07:34:51;;;;;;;4.67;3.40;;;11.60;99.90;;;;;;5073173;28;20429;-50
2021/10/12 07:37:17;;;;;;;5.60;3.53;;;10.70;99.90;;;;;;5072844;28;20577;-51
2021/10/12 07:39:45;;;;;;;6.03;4.87;;;11.40;99.90;;;;;;5073965;28;20978;-51
2021/10/12 07:42:13;;;;;;;5.00;3.00;;;11.30;99.90;;;;;;5073600;28;20795;-51
2021/10/12 07:44:41;;;;;;;5.30;2.80;;;10.90;99.90;;;;;;5073839;28;20794;-50
2021/10/12 07:47:08;;;;;;;4.37;3.20;;;10.70;99.90;;;;;;5072896;28;20537;-51
2021/10/12 07:49:35;;;;;;;3.90;2.30;;;11.30;99.90;;;;;;5073177;28;20438;-51
2021/10/12 07:52:06;;;;;;;4.37;2.70;;;11.00;99.90;;;;;;5072769;28;20415;-51
2021/10/12 07:54:45;;;;;;;8.60;3.27;;;11.40;99.90;;;;;;5072304;28;20454;-50
2021/10/12 07:57:14;;;;;;;4.27;2.97;;;11.70;99.90;;;;;;5073132;28;20525;-51
2021/10/12 07:59:41;;;;;;;3.27;2.70;;;11.50;99.90;;;;;;5072722;28;20469;-51
2021/10/12 08:02:11;;;;;;;8.43;3.37;;;11.60;99.90;;;;;;5073252;28;20434;-50
2021/10/12 08:04:38;;;;;;;3.03;2.40;;;11.50;99.90;;;;;;5072939;28;20458;-51
2021/10/12 08:07:05;;;;;;;4.47;2.80;;;11.60;99.90;;;;;;5073668;28;20425;-51
2021/10/12 08:09:31;;;;;;;4.37;2.90;;;11.60;99.90;;;;;;5072997;28;20430;-51
2021/10/12 08:11:58;;;;;;;5.90;3.23;;;11.50;99.90;;;;;;5072904;28;20434;-51
2021/10/12 08:14:26;;;;;;;3.90;2.33;;;11.70;99.90;;;;;;5073288;28;20440;-51
2021/10/12 08:16:53;;;;;;;5.10;2.73;;;11.50;99.90;;;;;;5073284;28;20836;-51
2021/10/12 08:19:20;;;;;;;4.27;2.60;;;11.10;99.90;;;;;;5072345;28;20473;-50
2021/10/12 08:21:47;;;;;;;3.60;2.07;;;11.10;99.90;;;;;;5073173;28;20422;-51
2021/10/12 08:24:17;;;;;;;5.83;2.60;;;11.30;99.90;;;;;;5072699;28;20458;-51
2021/10/12 08:26:44;;;;;;;5.07;2.70;;;11.70;99.90;;;;;;5072858;28;20439;-51
2021/10/12 08:29:11;;;;;;;3.63;2.43;;;12.00;99.90;;;;;;5072285;28;20433;-51
2021/10/12 08:31:38;;;;;;;3.40;2.70;;;11.10;99.90;;;;;;5072682;28;20799;-50
2021/10/12 08:34:06;;;;;;;4.13;2.57;;;11.50;99.90;;;;;;5072729;28;20450;-50
2021/10/12 08:36:32;;;;;;;4.70;2.40;;;12.20;99.90;;;;;;5072845;28;20405;-51
2021/10/12 08:38:59;;;;;;;7.93;2.30;;;11.80;99.90;;;;;;5072153;28;20478;-50
2021/10/12 08:41:30;;;;;;;2.57;1.63;;;11.80;99.90;;;;;;5072448;28;20435;-51
2021/10/12 08:43:57;;;;;;;2.77;2.00;;;11.90;99.90;;;;;;5072049;28;20536;-53
2021/10/12 08:46:26;;;;;;;6.80;2.60;;;11.80;99.90;;;;;;5072665;28;20468;-53
2021/10/12 08:48:55;;;;;;;6.93;2.60;;;11.90;99.90;;;;;;5071936;28;20435;-54
2021/10/12 08:51:22;;;;;;;4.23;2.63;;;11.80;99.90;;;;;;5071966;28;20466;-52
2021/10/12 08:53:49;;;;;;;5.17;2.50;;;11.50;99.90;;;;;;5072086;28;20466;-53
2021/10/12 08:56:15;;;;;;;4.80;2.00;;;12.30;99.90;;;;;;5072874;28;20470;-51
2021/10/12 08:58:42;;;;;;;5.23;2.73;;;12.10;99.90;;;;;;5071375;28;20875;-53
2021/10/12 09:01:13;;;;;;;3.47;1.70;;;12.10;99.90;;;;;;5072040;28;20518;-51
2021/10/12 09:03:47;;;;;;;9.30;2.30;;;12.10;99.90;;;;;;5071994;28;20922;-52
2021/10/12 09:06:29;;;;;;;4.57;2.00;;;12.10;99.90;;;;;;5071753;28;20824;-52
2021/10/12 09:08:58;;;;;;;4.10;1.40;;;12.00;99.90;;;;;;5071313;28;20429;-51
2021/10/12 09:11:28;;;;;;;6.63;1.80;;;12.10;99.90;;;;;;5072306;28;20510;-52
2021/10/12 09:14:01;;;;;;;5.53;1.90;;;11.80;99.90;;;;;;5072127;28;20808;-57
2021/10/12 09:16:32;;;;;;;4.90;2.80;;;11.70;99.90;;;;;;5072023;28;20833;-51
2021/10/12 09:19:00;;;;;;;3.30;1.60;;;11.60;99.90;;;;;;5071283;28;20503;-51
2021/10/12 09:21:30;;;;;;;4.03;1.90;;;11.40;99.90;;;;;;5071517;28;20442;-51
2021/10/12 09:24:09;;;;;;;6.20;1.67;;;11.40;99.90;;;;;;5071429;28;20464;-52
2021/10/12 09:26:38;;;;;;;6.03;1.70;;;11.30;99.90;;;;;;5071725;28;20926;-52
2021/10/12 09:29:09;;;;;;;8.07;2.80;;;11.40;99.90;;;;;;5071623;28;20806;-52
2021/10/12 09:31:38;;;;;;;4.60;2.13;;;11.30;99.90;;;;;;5071793;28;20498;-53
2021/10/12 09:34:06;;;;;;;2.30;1.80;;;11.40;99.90;;;;;;5071513;28;20464;-51
2021/10/12 09:36:37;;;;;;;5.03;1.97;;;11.50;99.90;;;;;;5071633;28;20526;-52
2021/10/12 09:39:05;;;;;;;3.60;1.67;;;11.60;99.90;;;;;;5071295;28;20550;-54
2021/10/12 09:41:32;;;;;;;4.10;1.40;;;11.80;99.90;;;;;;5071463;28;20430;-52
2021/10/12 09:44:12;;;;;;;3.93;1.83;;;11.90;99.90;;;;;;5071359;28;20470;-53
2021/10/12 09:46:39;;;;;;;3.30;1.47;;;11.90;99.90;;;;;;5071400;28;20753;-53
2021/10/12 09:49:13;;;;;;;7.93;1.67;;;11.80;99.90;;;;;;5071364;28;20442;-53
2021/10/12 09:51:59;;;;;;;4.07;1.57;;;11.80;99.90;;;;;;5071555;28;20772;-52
2021/10/12 09:54:29;;;;;;;2.50;1.37;;;11.70;99.90;;;;;;5071221;28;20452;-53
2021/10/12 09:56:57;;;;;;;6.73;1.63;;;11.70;99.90;;;;;;5070503;28;20400;-53
2021/10/12 09:59:23;;;;;;;3.60;2.33;;;11.70;99.90;;;;;;5070426;28;20474;-52
2021/10/12 10:01:52;;;;;;;3.33;1.83;;;11.60;99.90;;;;;;5070305;28;20490;-53
2021/10/12 10:04:20;;;;;;;6.13;2.20;;;11.90;99.90;;;;;;5070577;28;20424;-53
2021/10/12 10:06:49;;;;;;;5.10;2.97;;;11.80;99.90;;;;;;5070216;28;20409;-53
2021/10/12 10:09:18;;;;;;;4.03;1.23;;;12.40;99.90;;;;;;5070394;28;20444;-53
2021/10/12 10:11:45;;;;;;;4.90;1.83;;;12.20;99.90;;;;;;5071167;28;20433;-51
2021/10/12 10:14:13;;;;;;;4.93;1.97;;;12.10;99.90;;;;;;5071811;28;20428;-53
2021/10/12 10:16:45;;;;;;;7.30;2.00;;;12.00;99.90;;;;;;5070556;28;20400;-53
2021/10/12 10:19:15;;;;;;;2.47;1.57;;;12.40;99.90;;;;;;5069748;28;20455;-52
2021/10/12 10:21:46;;;;;;;5.73;1.90;;;12.70;99.90;;;;;;5070563;28;20893;-52
2021/10/12 10:24:23;;;;;;;5.07;1.60;;;12.60;99.90;;;;;;5070857;28;20829;-52
2021/10/12 10:26:51;;;;;;;5.53;2.10;;;12.40;99.90;;;;;;5070831;28;20525;-52
2021/10/12 10:29:21;;;;;;;4.87;2.10;;;12.20;99.90;;;;;;5072776;28;20444;-52
2021/10/12 10:31:51;;;;;;;4.10;1.80;;;12.60;99.90;;;;;;5075155;28;20426;-52
2021/10/12 10:34:29;;;;;;;4.13;2.23;;;12.80;99.90;;;;;;5075023;28;20449;-52
2021/10/12 10:37:31;;;;;;;5.10;1.40;;;12.90;99.90;;;;;;5075070;28;20451;-53
2021/10/12 10:40:06;;;;;;;7.50;1.43;;;13.10;99.90;;;;;;5074234;28;21004;-53
2021/10/12 10:42:53;;;;;;;4.73;1.33;;;12.90;99.90;;;;;;5074727;28;20838;-53
2021/10/12 10:45:20;;;;;;;3.53;1.40;;;13.00;99.90;;;;;;5074895;28;20441;-53
2021/10/12 10:47:49;;;;;;;2.43;1.60;;;13.10;99.90;;;;;;5073870;28;20792;-51
2021/10/12 10:50:17;;;;;;;5.23;1.03;;;12.70;99.90;;;;;;5073559;28;20402;-54
2021/10/12 10:52:45;;;;;;;2.30;1.27;;;12.60;99.90;;;;;;5074561;28;20453;-51
2021/10/12 10:55:20;;;;;;;2.83;1.20;;;12.60;99.90;;;;;;5074197;28;20438;-51
2021/10/12 10:58:03;;;;;;;4.70;1.70;;;12.70;99.90;;;;;;5073975;28;20806;-52
2021/10/12 11:00:37;;;;;;;3.50;1.30;;;12.70;99.90;;;;;;5073302;28;20456;-52
2021/10/12 11:03:05;;;;;;;4.03;1.17;;;13.00;99.90;;;;;;5074335;28;20427;-53
2021/10/12 11:05:40;;;;;;;2.40;1.20;;;13.10;99.90;;;;;;5074648;28;20440;-51
2021/10/12 11:08:18;;;;;;;3.10;1.37;;;13.30;99.90;;;;;;5073207;28;20417;-51
2021/10/12 11:10:47;;;;;;;6.90;1.43;;;13.40;99.90;;;;;;5073934;28;20457;-52
2021/10/12 11:13:27;;;;;;;3.60;1.10;;;13.30;99.90;;;;;;5072526;28;20463;-53
2021/10/12 11:15:54;;;;;;;4.10;1.37;;;13.40;99.90;;;;;;5074058;28;20432;-53
2021/10/12 11:18:21;;;;;;;2.07;0.90;;;13.10;99.90;;;;;;5073736;28;20482;-51
2021/10/12 11:20:50;;;;;;;7.00;0.93;;;13.20;99.90;;;;;;5074009;28;20482;-52
2021/10/12 11:23:23;;;;;;;4.97;1.20;;;13.00;99.90;;;;;;5073786;28;20457;-53
2021/10/12 11:25:57;;;;;;;1.47;0.90;;;12.70;99.80;;;;;;5073837;28;20443;-52
2021/10/12 11:28:25;;;;;;;1.73;0.97;;;12.50;99.90;;;;;;5073509;28;20431;-51
2021/10/12 11:30:51;;;;;;;3.93;1.30;;;12.40;99.90;;;;;;5074826;28;20551;-52
2021/10/12 11:33:29;;;;;;;2.80;1.23;;;12.20;99.90;;;;;;5073702;28;20457;-51
2021/10/12 11:35:59;;;;;;;5.87;1.53;;;12.10;99.90;;;;;;5073768;28;20496;-51
2021/10/12 11:38:29;;;;;;;4.83;1.40;;;11.90;99.90;;;;;;5073343;28;20755;-52
2021/10/12 11:40:58;;;;;;;3.10;1.47;;;11.60;99.90;;;;;;5073112;28;20472;-52
2021/10/12 11:43:37;;;;;;;4.70;1.60;;;12.10;99.90;;;;;;5073965;28;20692;-53
2021/10/12 11:46:05;;;;;;;2.37;1.30;;;12.00;99.90;;;;;;5073712;28;20460;-53
2021/10/12 11:48:35;;;;;;;5.50;1.37;;;12.40;99.90;;;;;;5073706;28;20435;-52
2021/10/12 11:51:19;;;;;;;3.33;1.50;;;12.10;99.90;;;;;;5073571;28;20524;-52
2021/10/12 11:53:47;;;;;;;7.93;1.60;;;12.20;99.90;;;;;;5073447;28;20450;-53
2021/10/12 11:56:17;;;;;;;2.53;1.40;;;12.30;99.90;;;;;;5073554;28;20808;-51
2021/10/12 11:58:44;;;;;;;3.40;1.23;;;11.90;99.90;;;;;;5073238;28;20443;-51
2021/10/12 12:01:12;;;;;;;2.70;0.90;;;12.60;99.90;;;;;;5073135;28;20470;-53
2021/10/12 12:03:41;;;;;;;1.90;1.13;;;12.40;99.40;;;;;;5073619;28;20461;-51
2021/10/12 12:06:09;;;;;;;6.33;1.40;;;12.20;98.60;;;;;;5073229;28;20465;-52
2021/10/12 12:08:40;;;;;;;2.97;1.33;;;12.20;98.70;;;;;;5072988;28;20435;-53
2021/10/12 12:11:07;;;;;;;3.03;1.63;;;12.40;99.10;;;;;;5073679;28;20410;-53
2021/10/12 12:13:36;;;;;;;2.83;1.30;;;12.50;99.40;;;;;;5072776;28;20454;-51
2021/10/12 12:16:03;;;;;;;2.83;1.80;;;12.00;99.50;;;;;;5072636;28;20437;-52
2021/10/12 12:18:31;;;;;;;4.03;1.17;;;11.90;99.40;;;;;;5072706;28;20770;-52
2021/10/12 12:20:59;;;;;;;2.63;1.17;;;12.60;99.10;;;;;;5073086;28;20486;-53
2021/10/12 12:23:40;;;;;;;3.03;1.57;;;12.50;98.20;;;;;;5072954;28;21005;-53
2021/10/12 12:26:09;;;;;;;3.70;1.50;;;12.50;98.00;;;;;;5072786;28;20533;-53
2021/10/12 12:28:38;;;;;;;3.50;1.73;;;12.30;97.50;;;;;;5072720;28;20445;-51
2021/10/12 12:31:22;;;;;;;3.00;1.80;;;12.20;97.50;;;;;;5072636;28;20436;-52
2021/10/12 12:33:50;;;;;;;2.90;1.40;;;12.20;97.30;;;;;;5072088;28;20844;-51
2021/10/12 12:36:17;;;;;;;4.40;1.70;;;12.50;97.40;;;;;;5072297;28;20456;-52
2021/10/12 12:38:44;;;;;;;5.27;3.30;;;12.50;97.00;;;;;;5071498;28;20435;-53
2021/10/12 12:41:19;;;;;;;2.60;1.30;;;12.60;97.20;;;;;;5072207;28;20491;-52
2021/10/12 12:43:55;;;;;;;2.23;1.60;;;12.90;97.20;;;;;;5072161;28;20836;-52
2021/10/12 12:46:23;;;;;;;5.13;2.37;;;13.30;97.60;;;;;;5072399;28;20439;-53
2021/10/12 12:49:04;;;;;;;2.10;1.20;;;13.20;97.50;;;;;;5072877;28;20483;-53
2021/10/12 12:51:31;;;;;;;4.03;1.40;;;13.30;97.20;;;;;;5071573;28;20447;-53
2021/10/12 12:53:58;;;;;;;3.87;1.60;;;13.40;96.70;;;;;;5071924;28;20462;-52